Pagrindinis puslapis
METAR-TAF:

METAR-TAF

Oro uostai :

Kristiansandas, Norvegija

platuma: 58-12N, ilguma: 008-05E, Aukštis: 1 m

Dabartinis oras

Ataskaita buvo paskelbta 23 minutes, ne 03:50 UTC
Ramus vėjas
Temperatūra 14°C
Drėgmė 88%
Slėgis 1010 hPa
Matomumas 10 km arba daugiau
Mažai debesys ne aukštis 200 ft
Su prošvaistėmis ne aukštis 2800 ft

METAR: ENCN 220350Z 00000KT 9999 FEW002 BKN028 14/12 Q1010

Laikas: 06:13 (04:13 UTC)

Prognozė

Ataskaita buvo paskelbta 2 valandos ir 13 minutes, ne 02:00 UTC
Prognozė galioja nuo 22 metu 03 UTC su 22 metu 12 UTC
Vėjas 8 kt iš Šiaurės Rytų
Matomumas 10 km arba daugiau
Su prošvaistėmis ne aukštis 3000 ft
lietus
Tikimybė 30% :
Laikinai
nuo 22 metu 03 UTC su 22 metu 12 UTC
Su prošvaistėmis ne aukštis 1200 ft
lietus

TAF: ENCN 220200Z 2203/2212 05008KT 9999 -RA BKN030 PROB30 TEMPO 2203/2212 RA BKN012

Orai ataskaitas ir orų prognozės (METAR, TAF).

turimą stotys yra geltonos ir raudonos taškus žemėlapyje.

Perkelti pele per norėdami pamatyti stoties vardą.

Tada spustelėkite, norėdami matyti oro stebėjimo ir prognozės.

Norėdami pakeisti žemėlapį: spustelėkite ant žalios mygtukų su juodo kryžiaus žemyn,; žalią mygtuką su brūkšneliu, jei norite nutolinti; arba žalių rodyklių gretimoms žemėlapius.


METAR-TAF: